Time;durP1;ratioP1;P1;durP2;ratioP2;P2;SDS_P1;SDS_P2;PMS_P1;PMS_P2;Temp;Humidity;BMP_temperature;BMP_pressure;BME280_temperature;BME280_humidity;BME280_pressure;Samples;Min_cycle;Max_cycle;Signal;HPM_P1;HPM_P2
2022/02/28 00:02:01;;;;;;;14.07;7.47;;;;;;;-0.62;60.43;101522.06;10392988;28;20038;-70
2022/02/28 00:07:02;;;;;;;13.35;7.25;;;;;;;-0.74;60.61;101521.94;10394168;28;20297;-71
2022/02/28 00:12:04;;;;;;;13.18;6.72;;;;;;;-0.85;61.02;101520.94;10389998;28;20049;-70
2022/02/28 00:17:06;;;;;;;12.35;6.60;;;;;;;-0.81;61.04;101523.56;10389996;28;20543;-71
2022/02/28 00:22:09;;;;;;;10.68;6.30;;;;;;;-0.81;61.06;101518.44;10386925;28;20038;-70
2022/02/28 00:27:10;;;;;;;11.02;5.78;;;;;;;-0.84;61.45;101520.13;10389980;28;20057;-71
2022/02/28 00:32:12;;;;;;;13.82;6.10;;;;;;;-0.84;61.30;101509.84;10388781;28;20084;-69
2022/02/28 00:37:14;;;;;;;9.93;5.95;;;;;;;-1.02;61.29;101520.75;10390616;28;20405;-71
2022/02/28 00:42:16;;;;;;;10.88;6.47;;;;;;;-1.13;61.91;101516.31;10390723;28;20087;-70
2022/02/28 00:47:18;;;;;;;15.02;6.00;;;;;;;-1.08;61.72;101512.13;10390844;28;20061;-71
2022/02/28 00:52:19;;;;;;;14.27;8.23;;;;;;;-1.12;61.86;101497.53;10391429;28;20045;-70
2022/02/28 00:57:21;;;;;;;17.95;8.38;;;;;;;-1.12;61.87;101498.38;10390299;28;20064;-70
2022/02/28 01:02:23;;;;;;;12.40;7.53;;;;;;;-1.13;61.64;101498.34;10389563;28;20051;-69
2022/02/28 01:07:25;;;;;;;13.85;7.97;;;;;;;-1.21;61.73;101493.97;10386016;28;20398;-70
2022/02/28 01:12:26;;;;;;;17.50;8.65;;;;;;;-1.21;61.67;101485.44;10387823;28;20053;-69
2022/02/28 01:17:28;;;;;;;15.77;9.07;;;;;;;-1.38;61.32;101477.50;10387915;28;20059;-69
2022/02/28 01:22:30;;;;;;;14.30;7.78;;;;;;;-1.64;62.45;101473.75;10388098;28;20330;-69
2022/02/28 01:27:32;;;;;;;16.83;8.88;;;;;;;-1.76;62.51;101471.00;10387814;28;20053;-69
2022/02/28 01:32:34;;;;;;;14.65;9.20;;;;;;;-1.87;62.88;101467.41;10387496;28;20061;-69
2022/02/28 01:37:37;;;;;;;15.52;8.95;;;;;;;-1.80;62.94;101461.53;10387187;28;20078;-69
2022/02/28 01:42:39;;;;;;;16.25;9.55;;;;;;;-1.78;63.14;101461.56;10385736;28;20049;-70
2022/02/28 01:47:42;;;;;;;14.65;8.85;;;;;;;-1.72;63.06;101459.94;10387522;28;20075;-70
2022/02/28 01:52:45;;;;;;;14.10;8.77;;;;;;;-1.66;63.09;101465.16;10383856;28;20132;-69
2022/02/28 01:57:48;;;;;;;16.85;8.95;;;;;;;-1.70;62.91;101462.53;10386860;28;20056;-69
2022/02/28 02:02:50;;;;;;;15.23;8.65;;;;;;;-1.67;63.35;101463.41;10387368;28;20045;-69
2022/02/28 02:07:52;;;;;;;15.25;9.60;;;;;;;-1.69;63.09;101474.50;10386050;28;20521;-69
2022/02/28 02:12:54;;;;;;;21.17;9.95;;;;;;;-1.83;62.93;101473.44;10383967;28;20049;-69
2022/02/28 02:17:57;;;;;;;17.08;9.50;;;;;;;-1.93;63.19;101475.00;10386358;28;20045;-69
2022/02/28 02:23:02;;;;;;;15.48;8.98;;;;;;;-1.86;63.30;101473.41;10384412;28;20054;-68
2022/02/28 02:28:07;;;;;;;18.70;10.40;;;;;;;-1.82;63.18;101475.16;10385162;28;20063;-69
2022/02/28 02:33:08;;;;;;;19.08;10.13;;;;;;;-1.81;63.41;101470.06;10386055;28;20073;-69
2022/02/28 02:38:10;;;;;;;13.60;9.00;;;;;;;-1.80;63.26;101466.66;10386165;28;20513;-69
2022/02/28 02:43:12;;;;;;;18.38;10.27;;;;;;;-1.83;63.05;101479.44;10385295;28;20049;-69
2022/02/28 02:48:22;;;;;;;16.63;9.63;;;;;;;-1.86;63.34;101475.97;10386238;28;20126;-70
2022/02/28 02:53:24;;;;;;;16.97;9.33;;;;;;;-1.88;63.16;101481.06;10385410;28;20417;-69
2022/02/28 02:58:26;;;;;;;15.23;9.52;;;;;;;-1.85;63.14;101478.53;10384256;28;20055;-70
2022/02/28 03:03:28;;;;;;;14.25;8.65;;;;;;;-1.85;63.28;101475.97;10389561;28;20501;-69
2022/02/28 03:08:29;;;;;;;18.50;8.95;;;;;;;-1.87;63.09;101474.22;10392328;28;20136;-70
2022/02/28 03:13:31;;;;;;;15.65;9.13;;;;;;;-1.92;63.14;101470.75;10392173;28;20051;-70
2022/02/28 03:18:33;;;;;;;13.50;9.05;;;;;;;-1.92;63.25;101470.75;10392484;28;20048;-69
2022/02/28 03:23:34;;;;;;;15.55;8.25;;;;;;;-1.93;63.30;101469.00;10375450;28;20052;-69
2022/02/28 03:28:36;;;;;;;16.67;8.60;;;;;;;-1.94;63.30;101463.03;10391738;28;20056;-69
2022/02/28 03:33:41;;;;;;;16.73;8.80;;;;;;;-1.95;63.22;101458.72;10391110;28;20409;-69
2022/02/28 03:38:42;;;;;;;15.77;8.75;;;;;;;-1.95;63.27;101455.31;10391870;28;20128;-69
2022/02/28 03:43:44;;;;;;;15.32;9.30;;;;;;;-2.01;63.15;101456.94;10391536;28;20046;-69
2022/02/28 03:48:47;;;;;;;13.98;9.13;;;;;;;-2.04;63.36;101456.00;10391028;28;20092;-69
2022/02/28 03:53:50;;;;;;;16.38;9.80;;;;;;;-2.15;63.30;101457.56;10391601;28;20477;-69
2022/02/28 03:58:51;;;;;;;15.25;9.50;;;;;;;-2.29;63.48;101451.38;10391159;28;20073;-68
2022/02/28 04:03:53;;;;;;;12.27;7.70;;;;;;;-2.32;63.57;101459.84;10386386;28;20063;-69
2022/02/28 04:08:56;;;;;;;12.75;8.70;;;;;;;-2.29;63.35;101465.03;10386397;28;20060;-68
2022/02/28 04:13:58;;;;;;;15.80;8.68;;;;;;;-2.41;63.93;101454.59;10381068;28;20499;-69
2022/02/28 04:19:04;;;;;;;13.38;8.05;;;;;;;-2.43;64.25;101455.41;10382509;28;20053;-68
2022/02/28 04:24:05;;;;;;;12.75;8.13;;;;;;;-2.38;64.06;101453.75;10383862;28;20426;-69
2022/02/28 04:29:07;;;;;;;14.38;8.40;;;;;;;-2.38;64.05;101443.50;10383353;28;20067;-68
2022/02/28 04:34:09;;;;;;;15.43;8.55;;;;;;;-2.42;63.95;101449.41;10383528;28;20049;-69
2022/02/28 04:39:11;;;;;;;13.40;8.40;;;;;;;-2.41;63.97;101449.47;10383839;28;20049;-68
2022/02/28 04:44:13;;;;;;;16.52;8.32;;;;;;;-2.41;63.92;101444.34;10386932;28;20049;-68
2022/02/28 04:49:15;;;;;;;14.02;8.23;;;;;;;-2.55;64.10;101450.06;10387998;28;20052;-68
2022/02/28 04:54:16;;;;;;;14.45;8.70;;;;;;;-2.53;64.03;101459.47;10390675;28;20049;-68
2022/02/28 04:59:18;;;;;;;13.82;8.38;;;;;;;-2.70;64.29;101454.91;10390758;28;20132;-68
2022/02/28 05:04:20;;;;;;;14.68;8.35;;;;;;;-2.70;64.41;101454.91;10375886;28;20064;-69
2022/02/28 05:09:21;;;;;;;12.50;7.97;;;;;;;-2.62;64.24;101451.66;10390953;28;20045;-68
2022/02/28 05:14:23;;;;;;;15.98;8.60;;;;;;;-2.68;64.27;101453.22;10389930;28;20046;-68
2022/02/28 05:19:25;;;;;;;15.40;8.85;;;;;;;-2.72;64.23;101451.44;10389092;28;20045;-68
2022/02/28 05:24:26;;;;;;;12.40;7.85;;;;;;;-2.70;64.39;101449.78;10391166;28;20064;-68
2022/02/28 05:29:29;;;;;;;13.45;8.10;;;;;;;-2.68;64.04;101446.41;10387880;28;20049;-68
2022/02/28 05:34:30;;;;;;;16.88;8.07;;;;;;;-2.75;64.29;101443.72;10388160;28;20065;-69
2022/02/28 05:39:32;;;;;;;15.55;8.20;;;;;;;-2.95;63.90;101446.78;10388835;28;20781;-68
2022/02/28 05:44:34;;;;;;;17.05;8.20;;;;;;;-3.03;64.51;101456.00;10388210;28;20239;-68
2022/02/28 05:49:36;;;;;;;12.82;8.38;;;;;;;-2.98;64.97;101459.50;10387634;28;20084;-68
2022/02/28 05:54:38;;;;;;;14.70;7.93;;;;;;;-2.95;64.69;101464.69;10387779;28;20045;-68
2022/02/28 05:59:39;;;;;;;14.35;8.05;;;;;;;-2.93;64.48;101469.84;10387636;28;20128;-68
2022/02/28 06:04:41;;;;;;;16.92;9.25;;;;;;;-2.93;64.33;101470.72;10385477;28;20412;-68
2022/02/28 06:09:43;;;;;;;14.23;8.27;;;;;;;-2.95;64.27;101480.06;10380365;28;20628;-68
2022/02/28 06:14:44;;;;;;;14.07;7.75;;;;;;;-2.95;64.31;101474.06;10389479;28;20576;-68
2022/02/28 06:19:47;;;;;;;16.45;9.70;;;;;;;-2.96;64.38;101472.34;10384459;28;20707;-68
2022/02/28 06:24:49;;;;;;;15.13;8.52;;;;;;;-2.94;64.24;101486.03;10388050;28;20150;-68
2022/02/28 06:29:51;;;;;;;14.38;7.70;;;;;;;-2.90;64.17;101491.22;10388886;28;20049;-68
2022/02/28 06:34:53;;;;;;;13.15;8.50;;;;;;;-2.85;64.11;101486.19;10384453;28;20041;-68
2022/02/28 06:39:57;;;;;;;12.13;7.75;;;;;;;-2.77;63.97;101494.03;10380804;28;20076;-68
2022/02/28 06:44:59;;;;;;;13.15;8.80;;;;;;;-2.76;64.14;101506.88;10384388;28;20324;-68
2022/02/28 06:50:05;;;;;;;17.48;9.73;;;;;;;-2.69;64.09;101508.69;10379378;28;20520;-68
2022/02/28 06:55:06;;;;;;;13.15;8.27;;;;;;;-2.50;63.91;101509.91;10384639;28;20049;-69
2022/02/28 07:00:09;;;;;;;13.18;8.35;;;;;;;-2.48;63.97;101518.47;10382649;28;20300;-69
2022/02/28 07:05:11;;;;;;;14.52;8.20;;;;;;;-2.35;63.64;101512.75;10385624;28;20048;-69
2022/02/28 07:10:13;;;;;;;13.48;8.23;;;;;;;-2.28;63.54;101515.44;10385152;28;20053;-69
2022/02/28 07:15:15;;;;;;;15.30;9.93;;;;;;;-2.18;63.19;101514.75;10383833;28;20038;-69
2022/02/28 07:20:16;;;;;;;15.07;9.15;;;;;;;-2.07;63.20;101518.38;10384375;28;20115;-68
2022/02/28 07:25:18;;;;;;;14.23;9.20;;;;;;;-2.03;63.19;101520.16;10384845;28;20090;-68
2022/02/28 07:30:20;;;;;;;18.85;10.60;;;;;;;-1.87;63.29;101520.38;10384964;28;20952;-69
2022/02/28 07:35:22;;;;;;;17.13;10.88;;;;;;;-1.76;63.05;101517.16;10385832;28;20049;-69
2022/02/28 07:40:24;;;;;;;19.98;11.40;;;;;;;-1.51;63.12;101516.66;10385308;28;20504;-68
2022/02/28 07:45:26;;;;;;;21.20;10.95;;;;;;;-1.33;63.07;101527.19;10383903;28;20061;-64
2022/02/28 07:50:27;;;;;;;18.15;10.55;;;;;;;-0.97;62.53;101529.38;10382696;28;20322;-64
2022/02/28 07:55:29;;;;;;;15.82;10.57;;;;;;;-0.60;62.09;101522.97;10384890;28;20502;-65
2022/02/28 08:00:32;;;;;;;13.35;8.90;;;;;;;-0.12;61.63;101518.28;10384965;28;20084;-64
2022/02/28 08:05:34;;;;;;;14.82;9.02;;;;;;;0.35;60.46;101524.66;10384146;28;20064;-63
2022/02/28 08:10:36;;;;;;;13.27;8.75;;;;;;;0.72;60.01;101522.31;10381812;28;20052;-64
2022/02/28 08:15:39;;;;;;;13.95;8.88;;;;;;;0.88;59.05;101524.13;10379923;28;20045;-62
2022/02/28 08:20:42;;;;;;;14.63;9.70;;;;;;;1.28;58.34;101523.41;10390851;28;20041;-64
2022/02/28 08:25:45;;;;;;;16.98;10.30;;;;;;;1.63;57.43;101526.09;10389094;28;20053;-64
2022/02/28 08:30:47;;;;;;;16.67;9.70;;;;;;;1.82;56.69;101518.41;10388551;28;20599;-64
2022/02/28 08:35:49;;;;;;;13.75;9.40;;;;;;;1.92;56.27;101527.00;10390137;28;20057;-64
2022/02/28 08:40:50;;;;;;;18.40;10.30;;;;;;;2.03;55.82;101515.81;10391331;28;20056;-64
2022/02/28 08:45:53;;;;;;;16.85;9.57;;;;;;;2.15;55.47;101510.66;10391026;28;20042;-64
2022/02/28 08:50:55;;;;;;;15.00;9.45;;;;;;;2.47;55.16;101507.19;10389074;28;20309;-63
2022/02/28 08:55:56;;;;;;;15.48;9.65;;;;;;;2.80;54.40;101507.09;10389868;28;20506;-64
2022/02/28 09:00:58;;;;;;;17.50;9.05;;;;;;;3.00;54.24;101506.19;10390867;28;20470;-63
2022/02/28 09:06:00;;;;;;;23.70;10.10;;;;;;;3.10;53.59;101503.53;10388235;28;20045;-64
2022/02/28 09:11:02;;;;;;;17.58;10.20;;;;;;;3.44;53.05;101499.91;10390055;28;20060;-64
2022/02/28 09:16:06;;;;;;;18.67;10.10;;;;;;;3.53;52.26;101503.31;10390972;28;20525;-64
2022/02/28 09:21:08;;;;;;;20.42;10.60;;;;;;;3.78;52.29;101493.66;10390126;28;20045;-64
2022/02/28 09:26:10;;;;;;;16.55;9.95;;;;;;;3.93;52.10;101496.16;10391182;28;20059;-65
2022/02/28 09:31:12;;;;;;;15.65;9.80;;;;;;;3.94;51.29;101490.13;10389194;28;20064;-64
2022/02/28 09:36:14;;;;;;;14.38;10.02;;;;;;;4.01;50.70;101491.78;10390405;28;20160;-64
2022/02/28 09:41:18;;;;;;;16.05;9.88;;;;;;;4.10;50.34;101496.88;10389968;28;20409;-65
2022/02/28 09:46:20;;;;;;;15.45;10.20;;;;;;;4.22;50.13;101491.59;10390411;28;20053;-64
2022/02/28 09:51:38;;;;;;;13.52;9.18;;;;;;;4.29;49.86;101487.22;10389318;28;20054;-64
2022/02/28 09:56:40;;;;;;;15.40;9.48;;;;;;;4.59;49.06;101481.72;10389866;28;20041;-64
2022/02/28 10:01:46;;;;;;;13.30;9.30;;;;;;;4.71;49.13;101481.59;10386576;28;20088;-64
2022/02/28 10:06:49;;;;;;;14.32;9.02;;;;;;;4.94;49.07;101484.78;10387723;28;20046;-64
2022/02/28 10:11:52;;;;;;;19.33;10.00;;;;;;;5.20;48.26;101487.91;10388209;28;20144;-64
2022/02/28 10:16:58;;;;;;;16.38;10.02;;;;;;;5.33;48.47;101484.25;10388202;28;20053;-64
2022/02/28 10:22:03;;;;;;;15.02;9.32;;;;;;;5.39;47.37;101483.34;10388413;28;20339;-65
2022/02/28 10:27:06;;;;;;;13.50;9.40;;;;;;;5.35;47.39;101486.84;10388431;28;20095;-64
2022/02/28 10:32:11;;;;;;;14.95;9.68;;;;;;;5.52;47.23;101487.44;10387354;28;20096;-65
2022/02/28 10:37:13;;;;;;;16.20;9.27;;;;;;;5.95;46.71;101488.50;10387858;28;20045;-64
2022/02/28 10:42:15;;;;;;;14.48;9.70;;;;;;;6.10;45.87;101484.81;10386848;28;20055;-64
2022/02/28 10:47:17;;;;;;;15.45;9.90;;;;;;;5.82;45.55;101483.56;10387424;28;20224;-65
2022/02/28 10:52:19;;;;;;;14.98;9.80;;;;;;;6.08;45.37;101474.44;10386714;28;20087;-64
2022/02/28 10:57:22;;;;;;;14.95;9.93;;;;;;;6.37;44.89;101473.13;10388055;28;20056;-64
2022/02/28 11:02:33;;;;;;;15.13;9.35;;;;;;;6.58;43.87;101467.50;10386553;28;20045;-65
2022/02/28 11:07:49;;;;;;;13.40;9.45;;;;;;;6.56;43.38;101449.34;10385794;28;20507;-65
2022/02/28 11:12:51;;;;;;;18.00;9.95;;;;;;;6.56;44.01;101445.88;10387150;28;20060;-64
2022/02/28 11:17:54;;;;;;;13.40;9.38;;;;;;;6.60;43.54;101437.13;10386024;28;20049;-64
2022/02/28 11:22:56;;;;;;;15.60;9.25;;;;;;;6.59;42.95;101438.03;10379136;28;20049;-64
2022/02/28 11:27:59;;;;;;;14.98;8.80;;;;;;;6.75;42.71;101431.66;10385830;28;20046;-64
2022/02/28 11:33:03;;;;;;;16.85;9.70;;;;;;;6.92;41.92;101429.53;10385990;28;20057;-64
2022/02/28 11:38:27;;;;;;;14.77;8.68;;;;;;;7.07;40.73;101421.41;10386004;28;20267;-65
2022/02/28 11:43:31;;;;;;;14.30;8.90;;;;;;;7.28;41.00;101418.34;10382338;28;20097;-65
2022/02/28 11:48:40;;;;;;;12.57;7.80;;;;;;;7.45;37.85;101418.81;10385885;28;20064;-65
2022/02/28 11:53:52;;;;;;;10.82;7.50;;;;;;;7.44;36.08;101411.91;10385265;28;20078;-64
2022/02/28 11:58:59;;;;;;;14.00;7.90;;;;;;;7.66;38.72;101402.69;10384751;28;20318;-64
2022/02/28 12:04:07;;;;;;;12.57;7.93;;;;;;;7.91;37.21;101392.50;10384949;28;20053;-64
2022/02/28 12:09:09;;;;;;;11.40;7.65;;;;;;;8.09;37.26;101391.16;10384673;28;20064;-65
2022/02/28 12:14:10;;;;;;;15.88;7.30;;;;;;;8.10;36.86;101388.53;10384143;28;20129;-65
2022/02/28 12:19:13;;;;;;;11.43;7.20;;;;;;;8.09;37.52;101386.81;10385581;28;20307;-66
2022/02/28 12:24:14;;;;;;;9.65;6.88;;;;;;;8.21;35.61;101380.44;10381259;28;20057;-65
2022/02/28 12:29:16;;;;;;;12.23;6.63;;;;;;;8.41;35.73;101378.13;10384656;28;20056;-65
2022/02/28 12:34:31;;;;;;;12.13;6.95;;;;;;;8.40;36.41;101371.22;10384703;28;20528;-65
2022/02/28 12:39:34;;;;;;;12.57;7.40;;;;;;;8.28;35.91;101374.19;10382930;28;20600;-65
2022/02/28 12:44:37;;;;;;;10.77;6.45;;;;;;;8.31;34.68;101368.88;10384104;28;20045;-66
2022/02/28 12:49:39;;;;;;;10.05;6.63;;;;;;;8.47;34.94;101365.78;10385223;28;20363;-65
2022/02/28 12:54:40;;;;;;;11.10;6.68;;;;;;;8.47;33.89;101352.75;10384174;28;20064;-65
2022/02/28 12:59:45;;;;;;;11.63;6.75;;;;;;;8.56;34.94;101349.03;10383356;28;20136;-65
2022/02/28 13:04:52;;;;;;;14.15;6.57;;;;;;;8.85;33.15;101342.03;10386851;28;20057;-65
2022/02/28 13:09:53;;;;;;;10.48;6.95;;;;;;;8.85;33.01;101346.44;10390191;28;20049;-66
2022/02/28 13:14:56;;;;;;;10.73;6.20;;;;;;;9.00;32.97;101343.34;10382745;28;20053;-66
2022/02/28 13:20:05;;;;;;;11.80;6.15;;;;;;;9.27;32.04;101344.22;10383736;28;20421;-66
2022/02/28 13:25:08;;;;;;;11.18;6.28;;;;;;;9.21;32.64;101340.06;10387108;28;20221;-66
2022/02/28 13:30:11;;;;;;;8.25;6.00;;;;;;;9.31;32.46;101333.66;10388970;28;20244;-66
2022/02/28 13:35:13;;;;;;;10.70;6.43;;;;;;;9.20;32.09;101330.50;10386764;28;20053;-65
2022/02/28 13:40:15;;;;;;;11.55;6.45;;;;;;;9.34;32.65;101332.69;10384874;28;20453;-65
2022/02/28 13:45:22;;;;;;;8.63;6.05;;;;;;;9.41;32.41;101329.84;10377686;28;20132;-66
2022/02/28 13:50:30;;;;;;;11.60;6.80;;;;;;;9.45;30.62;101317.53;10385488;28;20057;-66
2022/02/28 13:55:33;;;;;;;8.98;6.07;;;;;;;9.33;32.72;101325.75;10388376;28;20045;-66
2022/02/28 14:00:35;;;;;;;10.35;6.60;;;;;;;9.47;31.58;101320.94;10387981;28;20473;-66
2022/02/28 14:05:37;;;;;;;11.55;6.82;;;;;;;9.26;31.62;101317.25;10387485;28;20057;-66
2022/02/28 14:11:00;;;;;;;10.52;6.00;;;;;;;9.49;32.08;101306.94;10386384;28;20171;-65
2022/02/28 14:16:16;;;;;;;10.38;6.53;;;;;;;9.45;32.05;101315.78;10386846;28;20374;-65
2022/02/28 14:21:25;;;;;;;10.70;6.80;;;;;;;9.35;31.57;101316.97;10386420;28;20056;-66
2022/02/28 14:26:31;;;;;;;12.45;6.75;;;;;;;9.65;32.48;101312.47;10386369;28;20045;-66
2022/02/28 14:31:53;;;;;;;12.25;7.50;;;;;;;9.57;30.62;101310.13;10369351;28;20111;-66
2022/02/28 14:36:55;;;;;;;10.52;7.25;;;;;;;9.49;33.12;101298.22;10385388;28;20099;-66
2022/02/28 14:41:57;;;;;;;10.77;6.63;;;;;;;9.52;32.78;101301.59;10387274;28;20065;-65
2022/02/28 14:46:58;;;;;;;10.85;6.88;;;;;;;9.47;31.87;101295.69;10386190;28;20124;-64
2022/02/28 14:52:01;;;;;;;11.35;6.82;;;;;;;9.46;32.78;101286.13;10386574;28;20223;-64
2022/02/28 14:57:03;;;;;;;11.35;6.80;;;;;;;9.42;33.24;101278.47;10385503;28;20132;-64
2022/02/28 15:02:04;;;;;;;9.68;6.70;;;;;;;9.43;33.94;101265.34;10387008;28;20053;-63
2022/02/28 15:07:06;;;;;;;10.70;6.93;;;;;;;9.46;33.30;101261.78;10385934;28;20053;-64
2022/02/28 15:12:08;;;;;;;11.57;7.03;;;;;;;9.46;34.08;101253.97;10386510;28;20516;-64
2022/02/28 15:17:10;;;;;;;11.65;7.43;;;;;;;9.31;33.32;101254.47;10382534;28;20045;-64
2022/02/28 15:22:12;;;;;;;10.65;6.70;;;;;;;9.27;33.54;101252.88;10384416;28;20417;-64
2022/02/28 15:27:13;;;;;;;9.93;7.13;;;;;;;9.31;34.22;101249.25;10382780;28;20132;-64
2022/02/28 15:32:15;;;;;;;12.27;7.60;;;;;;;9.18;34.57;101243.56;10382931;28;20063;-64
2022/02/28 15:37:17;;;;;;;14.23;7.10;;;;;;;9.21;33.80;101238.28;10381810;28;20056;-64
2022/02/28 15:42:20;;;;;;;11.85;7.43;;;;;;;9.13;34.03;101234.19;10383136;28;20057;-64
2022/02/28 15:47:22;;;;;;;11.88;7.05;;;;;;;9.08;33.88;101236.09;10383076;28;20574;-65
2022/02/28 15:52:25;;;;;;;9.90;7.22;;;;;;;9.23;33.81;101235.59;10382384;28;20061;-65
2022/02/28 15:57:27;;;;;;;11.70;7.50;;;;;;;9.15;33.97;101232.38;10383309;28;20504;-65
2022/02/28 16:02:29;;;;;;;10.93;7.30;;;;;;;9.13;34.97;101223.75;10382519;28;20057;-65
2022/02/28 16:07:32;;;;;;;11.20;7.50;;;;;;;9.06;34.36;101222.25;10382517;28;20048;-65
2022/02/28 16:12:37;;;;;;;11.65;7.85;;;;;;;8.96;34.94;101215.63;10383629;28;20774;-65
2022/02/28 16:17:44;;;;;;;12.38;7.22;;;;;;;8.82;35.51;101203.03;10374840;28;20046;-65
2022/02/28 16:22:46;;;;;;;12.40;8.18;;;;;;;8.71;35.08;101202.50;10382458;28;20053;-65
2022/02/28 16:27:48;;;;;;;13.63;7.90;;;;;;;8.48;34.78;101213.69;10382210;28;20191;-66
2022/02/28 16:32:51;;;;;;;14.70;7.90;;;;;;;8.38;35.32;101219.22;10382584;28;20057;-64
2022/02/28 16:37:54;;;;;;;12.38;8.13;;;;;;;8.23;35.79;101217.94;10383952;28;20049;-65
2022/02/28 16:42:56;;;;;;;13.20;7.93;;;;;;;8.08;35.51;101226.16;10388700;28;20504;-65
2022/02/28 16:47:59;;;;;;;13.10;8.20;;;;;;;7.93;35.78;101227.47;10389144;28;20054;-65
2022/02/28 16:53:05;;;;;;;11.85;7.72;;;;;;;7.73;37.08;101227.16;10390747;28;20751;-66
2022/02/28 16:58:08;;;;;;;10.80;6.70;;;;;;;7.41;39.18;101223.69;10374672;28;20497;-65
2022/02/28 17:03:11;;;;;;;12.00;7.18;;;;;;;7.19;39.26;101233.81;10389952;28;20049;-66
2022/02/28 17:08:13;;;;;;;11.23;7.30;;;;;;;7.02;38.67;101239.44;10388059;28;20053;-65
2022/02/28 17:13:15;;;;;;;9.23;6.18;;;;;;;6.88;38.20;101246.72;10389462;28;20045;-65
2022/02/28 17:18:17;;;;;;;10.73;7.03;;;;;;;6.68;38.46;101255.88;10388104;28;20556;-65
2022/02/28 17:23:19;;;;;;;13.10;7.18;;;;;;;6.45;39.56;101255.53;10387565;28;20049;-65
2022/02/28 17:28:21;;;;;;;13.00;7.20;;;;;;;6.20;39.97;101255.19;10388648;28;20658;-65
2022/02/28 17:33:22;;;;;;;11.10;7.00;;;;;;;6.05;40.32;101265.88;10389642;28;20421;-65
2022/02/28 17:38:24;;;;;;;10.02;6.05;;;;;;;5.96;40.64;101272.09;10385459;28;20138;-65
2022/02/28 17:43:26;;;;;;;12.60;6.07;;;;;;;5.84;41.16;101280.13;10388006;28;20144;-65
2022/02/28 17:48:27;;;;;;;9.30;6.43;;;;;;;5.68;41.79;101280.44;10386233;28;20480;-65
2022/02/28 17:53:29;;;;;;;11.05;7.15;;;;;;;5.50;42.49;101279.03;10382518;28;20081;-65
2022/02/28 17:58:31;;;;;;;14.35;9.38;;;;;;;5.40;41.98;101282.66;10388519;28;20049;-65
2022/02/28 18:03:33;;;;;;;15.52;9.20;;;;;;;5.28;42.09;101282.88;10386314;28;20049;-64
2022/02/28 18:08:34;;;;;;;13.20;9.57;;;;;;;5.17;42.81;101282.19;10385993;28;20136;-65
2022/02/28 18:13:39;;;;;;;14.07;9.70;;;;;;;4.98;43.45;101284.25;10385308;28;20037;-65
2022/02/28 18:18:40;;;;;;;17.05;10.05;;;;;;;4.80;44.01;101292.28;10386473;28;20144;-64
2022/02/28 18:23:42;;;;;;;20.50;10.82;;;;;;;4.66;44.73;101286.44;10386606;28;20152;-65
2022/02/28 18:28:45;;;;;;;19.83;13.00;;;;;;;4.51;44.72;101286.66;10387751;28;20050;-64
2022/02/28 18:33:46;;;;;;;17.92;12.13;;;;;;;4.32;45.95;101296.41;10387050;28;20049;-64
2022/02/28 18:38:49;;;;;;;12.68;8.35;;;;;;;4.09;45.60;101293.22;10385651;28;20072;-65
2022/02/28 18:43:50;;;;;;;15.10;9.15;;;;;;;3.94;46.89;101298.59;10386588;28;20179;-65
2022/02/28 18:48:52;;;;;;;13.00;9.27;;;;;;;3.93;46.82;101291.69;10386681;28;20144;-64
2022/02/28 18:53:56;;;;;;;14.43;9.38;;;;;;;3.86;47.41;101296.06;10385044;28;20490;-64
2022/02/28 18:58:58;;;;;;;13.68;9.07;;;;;;;3.71;47.39;101291.03;10385854;28;20484;-64
2022/02/28 19:03:59;;;;;;;12.43;8.02;;;;;;;3.51;47.71;101298.13;10384205;28;20452;-64
2022/02/28 19:09:01;;;;;;;18.45;9.80;;;;;;;3.36;48.15;101292.22;10385400;28;20505;-64
2022/02/28 19:14:04;;;;;;;17.15;9.65;;;;;;;3.12;48.67;101284.69;10385171;28;20494;-63
2022/02/28 19:19:05;;;;;;;17.30;8.95;;;;;;;2.97;49.05;101289.09;10385609;28;20073;-63
2022/02/28 19:24:07;;;;;;;15.55;9.48;;;;;;;2.96;49.60;101281.38;10382840;28;20160;-64
2022/02/28 19:29:10;;;;;;;18.00;9.98;;;;;;;2.96;50.50;101286.53;10386013;28;20045;-63
2022/02/28 19:34:12;;;;;;;18.88;9.75;;;;;;;2.79;49.93;101270.28;10384446;28;20850;-63
2022/02/28 19:39:14;;;;;;;17.73;10.25;;;;;;;2.67;50.20;101281.56;10385011;28;20049;-63
2022/02/28 19:44:17;;;;;;;13.07;8.85;;;;;;;2.61;50.84;101278.16;10382639;28;20060;-63
2022/02/28 19:49:22;;;;;;;19.60;10.63;;;;;;;2.51;51.05;101272.19;10382184;28;20063;-63
2022/02/28 19:54:24;;;;;;;13.82;9.18;;;;;;;2.40;51.65;101280.88;10383039;28;20075;-63
2022/02/28 19:59:26;;;;;;;13.82;8.60;;;;;;;2.32;51.36;101291.22;10382771;28;20052;-62
2022/02/28 20:04:29;;;;;;;12.25;9.23;;;;;;;2.24;51.97;101292.97;10383116;28;20208;-68
2022/02/28 20:09:31;;;;;;;14.43;9.50;;;;;;;1.98;51.95;101287.91;10382565;28;20142;-68
2022/02/28 20:14:33;;;;;;;18.05;10.65;;;;;;;1.89;52.28;101281.94;10384209;28;20045;-68
2022/02/28 20:19:35;;;;;;;13.80;10.10;;;;;;;1.90;52.62;101286.22;10390863;28;20041;-68
2022/02/28 20:24:37;;;;;;;14.30;9.32;;;;;;;1.87;53.21;101281.94;10391914;28;20045;-68
2022/02/28 20:29:38;;;;;;;14.70;9.80;;;;;;;1.80;53.09;101274.22;10390771;28;20160;-68
2022/02/28 20:34:40;;;;;;;15.95;11.40;;;;;;;1.72;53.45;101275.97;10391644;28;20492;-68
2022/02/28 20:39:42;;;;;;;17.70;10.40;;;;;;;1.69;53.64;101283.69;10392279;28;20101;-68
2022/02/28 20:44:44;;;;;;;15.45;10.25;;;;;;;1.43;53.53;101290.63;10387770;28;20060;-68
2022/02/28 20:49:46;;;;;;;15.82;9.75;;;;;;;1.34;54.01;101305.22;10391323;28;20077;-68
2022/02/28 20:54:48;;;;;;;14.75;10.88;;;;;;;1.34;54.25;101301.78;10392368;28;20498;-68
2022/02/28 20:59:50;;;;;;;18.85;12.98;;;;;;;1.32;54.28;101301.78;10390117;28;20766;-68
2022/02/28 21:04:51;;;;;;;17.48;11.65;;;;;;;1.29;54.62;101303.53;10389752;28;20055;-68
2022/02/28 21:09:53;;;;;;;14.93;9.98;;;;;;;1.24;54.79;101303.50;10388868;28;20053;-68
2022/02/28 21:14:56;;;;;;;14.48;9.00;;;;;;;1.22;54.54;101305.22;10390102;28;20049;-68
2022/02/28 21:19:58;;;;;;;13.27;8.85;;;;;;;1.05;54.39;101296.66;10389106;28;20056;-69
2022/02/28 21:24:59;;;;;;;11.57;8.27;;;;;;;0.89;55.10;101294.91;10387127;28;20716;-68
2022/02/28 21:30:02;;;;;;;15.60;9.90;;;;;;;0.88;55.45;101294.91;10389231;28;20519;-69
2022/02/28 21:35:05;;;;;;;16.30;11.60;;;;;;;0.85;55.39;101292.34;10388841;28;20479;-70
2022/02/28 21:40:08;;;;;;;25.17;15.70;;;;;;;0.87;55.62;101293.19;10388887;28;20053;-68
2022/02/28 21:45:12;;;;;;;18.67;12.02;;;;;;;0.81;55.83;101291.47;10387948;28;20702;-68
2022/02/28 21:50:14;;;;;;;19.27;12.60;;;;;;;0.78;56.12;101291.47;10389135;28;20055;-68
2022/02/28 21:55:17;;;;;;;18.27;11.30;;;;;;;0.76;55.95;101293.19;10387330;28;20205;-68
2022/02/28 22:00:19;;;;;;;16.77;11.20;;;;;;;0.71;56.14;101283.75;10388189;28;20516;-68
2022/02/28 22:05:21;;;;;;;18.52;11.95;;;;;;;0.59;56.16;101274.25;10387564;28;20050;-68
2022/02/28 22:10:23;;;;;;;16.88;10.60;;;;;;;0.38;56.32;101276.78;10386501;28;20063;-68
2022/02/28 22:15:25;;;;;;;16.20;10.90;;;;;;;0.33;56.60;101279.34;10386920;28;20072;-69
2022/02/28 22:20:27;;;;;;;18.52;12.15;;;;;;;0.32;56.65;101279.34;10387468;28;20046;-67
2022/02/28 22:25:28;;;;;;;19.50;12.38;;;;;;;0.34;56.80;101286.19;10379862;28;20430;-69
2022/02/28 22:30:30;;;;;;;19.65;13.43;;;;;;;0.28;57.19;101283.59;10383454;28;20053;-68
2022/02/28 22:35:32;;;;;;;22.23;13.07;;;;;;;0.33;57.39;101281.91;10385247;28;20150;-68
2022/02/28 22:40:34;;;;;;;23.35;13.35;;;;;;;0.35;57.39;101281.91;10383391;28;20045;-68
2022/02/28 22:45:35;;;;;;;25.05;15.52;;;;;;;0.28;57.45;101282.78;10385422;28;20089;-68
2022/02/28 22:50:37;;;;;;;28.00;17.05;;;;;;;0.31;57.62;101282.75;10384319;28;20057;-69
2022/02/28 22:55:39;;;;;;;25.45;14.38;;;;;;;0.32;57.24;101269.06;10383464;28;20046;-69
2022/02/28 23:00:44;;;;;;;18.80;12.75;;;;;;;0.26;57.79;101269.03;10378536;28;20839;-69
2022/02/28 23:05:47;;;;;;;24.10;14.00;;;;;;;0.15;57.21;101268.13;10384148;28;20078;-68